sensor_id;sensor_type;location;lat;lon;timestamp;pressure;altitude;pressure_sealevel;temperature;humidity
55424;BME280;41294;42.666;23.350;2022-10-19T00:01:46;95648.22;;;6.82;85.55
55424;BME280;41294;42.666;23.350;2022-10-19T00:04:11;95657.56;;;6.83;85.28
55424;BME280;41294;42.666;23.350;2022-10-19T00:06:37;95658.88;;;6.94;85.08
55424;BME280;41294;42.666;23.350;2022-10-19T00:09:09;95654.53;;;6.84;84.83
55424;BME280;41294;42.666;23.350;2022-10-19T00:11:38;95661.41;;;6.75;85.73
55424;BME280;41294;42.666;23.350;2022-10-19T00:14:04;95646.53;;;6.68;85.90
55424;BME280;41294;42.666;23.350;2022-10-19T00:16:32;95644.31;;;6.67;86.07
55424;BME280;41294;42.666;23.350;2022-10-19T00:19:00;95643.94;;;6.68;86.15
55424;BME280;41294;42.666;23.350;2022-10-19T00:21:26;95645.78;;;6.68;85.85
55424;BME280;41294;42.666;23.350;2022-10-19T00:23:55;95634.19;;;6.69;86.47
55424;BME280;41294;42.666;23.350;2022-10-19T00:26:21;95635.25;;;6.75;86.00
55424;BME280;41294;42.666;23.350;2022-10-19T00:28:46;95635.28;;;6.45;87.35
55424;BME280;41294;42.666;23.350;2022-10-19T00:31:14;95623.16;;;6.28;88.70
55424;BME280;41294;42.666;23.350;2022-10-19T00:33:41;95612.66;;;6.32;88.20
55424;BME280;41294;42.666;23.350;2022-10-19T00:36:18;95613.38;;;6.32;88.10
55424;BME280;41294;42.666;23.350;2022-10-19T00:38:44;95616.31;;;6.38;87.74
55424;BME280;41294;42.666;23.350;2022-10-19T00:41:10;95613.75;;;6.34;88.34
55424;BME280;41294;42.666;23.350;2022-10-19T00:46:20;95605.16;;;6.34;88.34
55424;BME280;41294;42.666;23.350;2022-10-19T00:48:46;95598.50;;;6.29;88.55
55424;BME280;41294;42.666;23.350;2022-10-19T00:51:12;95600.28;;;6.36;88.06
55424;BME280;41294;42.666;23.350;2022-10-19T00:53:38;95592.88;;;6.31;88.33
55424;BME280;41294;42.666;23.350;2022-10-19T00:56:07;95590.31;;;6.27;88.54
55424;BME280;41294;42.666;23.350;2022-10-19T00:58:33;95593.38;;;6.19;88.03
55424;BME280;41294;42.666;23.350;2022-10-19T01:01:00;95592.19;;;5.97;89.60
55424;BME280;41294;42.666;23.350;2022-10-19T01:03:26;95583.34;;;5.87;89.79
55424;BME280;41294;42.666;23.350;2022-10-19T01:05:52;95585.91;;;5.91;90.04
55424;BME280;41294;42.666;23.350;2022-10-19T01:08:18;95578.00;;;5.98;89.24
55424;BME280;41294;42.666;23.350;2022-10-19T01:14:06;95574.88;;;6.06;89.12
55424;BME280;41294;42.666;23.350;2022-10-19T01:16:44;95569.97;;;6.12;88.95
55424;BME280;41294;42.666;23.350;2022-10-19T01:36:29;95558.00;;;5.84;89.84
55424;BME280;41294;42.666;23.350;2022-10-19T01:44:13;95547.84;;;5.57;91.08
55424;BME280;41294;42.666;23.350;2022-10-19T01:46:43;95547.06;;;5.60;90.51
55424;BME280;41294;42.666;23.350;2022-10-19T01:49:19;95542.66;;;5.53;91.02
55424;BME280;41294;42.666;23.350;2022-10-19T01:51:52;95541.09;;;5.59;90.53
55424;BME280;41294;42.666;23.350;2022-10-19T01:54:20;95539.91;;;5.64;90.58
55424;BME280;41294;42.666;23.350;2022-10-19T01:56:49;95541.09;;;5.59;90.41
55424;BME280;41294;42.666;23.350;2022-10-19T01:59:17;95532.94;;;5.54;90.52
55424;BME280;41294;42.666;23.350;2022-10-19T02:01:45;95542.03;;;5.42;91.16
55424;BME280;41294;42.666;23.350;2022-10-19T02:04:14;95541.84;;;5.60;90.38
55424;BME280;41294;42.666;23.350;2022-10-19T02:06:41;95537.00;;;5.58;90.45
55424;BME280;41294;42.666;23.350;2022-10-19T02:09:07;95529.13;;;5.62;90.18
55424;BME280;41294;42.666;23.350;2022-10-19T02:11:34;95534.28;;;5.68;89.75
55424;BME280;41294;42.666;23.350;2022-10-19T02:14:05;95528.34;;;5.65;89.89
55424;BME280;41294;42.666;23.350;2022-10-19T02:16:37;95533.94;;;5.67;89.47
55424;BME280;41294;42.666;23.350;2022-10-19T02:19:04;95537.47;;;5.50;90.58
55424;BME280;41294;42.666;23.350;2022-10-19T02:21:33;95529.22;;;5.55;90.52
55424;BME280;41294;42.666;23.350;2022-10-19T02:23:59;95525.94;;;5.47;90.27
55424;BME280;41294;42.666;23.350;2022-10-19T02:26:25;95534.13;;;5.49;90.29
55424;BME280;41294;42.666;23.350;2022-10-19T02:28:53;95527.06;;;5.46;90.12
55424;BME280;41294;42.666;23.350;2022-10-19T02:31:19;95522.63;;;5.43;90.20
55424;BME280;41294;42.666;23.350;2022-10-19T02:33:44;95527.25;;;5.29;90.91
55424;BME280;41294;42.666;23.350;2022-10-19T02:36:10;95529.50;;;5.30;90.91
55424;BME280;41294;42.666;23.350;2022-10-19T02:38:35;95525.63;;;5.42;90.28
55424;BME280;41294;42.666;23.350;2022-10-19T02:41:16;95522.22;;;5.45;89.62
55424;BME280;41294;42.666;23.350;2022-10-19T02:43:46;95531.66;;;5.35;90.09
55424;BME280;41294;42.666;23.350;2022-10-19T02:46:51;95537.03;;;5.21;90.96
55424;BME280;41294;42.666;23.350;2022-10-19T02:49:21;95534.19;;;5.09;91.97
55424;BME280;41294;42.666;23.350;2022-10-19T02:52:01;95530.34;;;5.20;91.40
55424;BME280;41294;42.666;23.350;2022-10-19T02:54:27;95530.19;;;5.34;90.53
55424;BME280;41294;42.666;23.350;2022-10-19T02:56:53;95521.22;;;5.35;89.90
55424;BME280;41294;42.666;23.350;2022-10-19T02:59:19;95522.47;;;5.24;90.82
55424;BME280;41294;42.666;23.350;2022-10-19T03:01:44;95518.41;;;5.19;90.52
55424;BME280;41294;42.666;23.350;2022-10-19T03:04:10;95518.06;;;5.17;90.42
55424;BME280;41294;42.666;23.350;2022-10-19T03:06:35;95515.84;;;5.16;90.64
55424;BME280;41294;42.666;23.350;2022-10-19T03:09:01;95521.78;;;5.16;90.74
55424;BME280;41294;42.666;23.350;2022-10-19T03:11:26;95524.88;;;5.08;91.81
55424;BME280;41294;42.666;23.350;2022-10-19T03:13:52;95528.13;;;5.15;90.74
55424;BME280;41294;42.666;23.350;2022-10-19T03:16:17;95529.53;;;5.23;90.66
55424;BME280;41294;42.666;23.350;2022-10-19T03:18:43;95525.28;;;5.03;91.36
55424;BME280;41294;42.666;23.350;2022-10-19T03:21:11;95525.97;;;5.10;91.22
55424;BME280;41294;42.666;23.350;2022-10-19T03:23:37;95529.00;;;5.02;91.64
55424;BME280;41294;42.666;23.350;2022-10-19T03:26:04;95532.88;;;4.87;92.46
55424;BME280;41294;42.666;23.350;2022-10-19T03:28:30;95534.28;;;4.95;91.95
55424;BME280;41294;42.666;23.350;2022-10-19T03:30:55;95535.03;;;4.95;91.90
55424;BME280;41294;42.666;23.350;2022-10-19T03:33:21;95526.81;;;4.97;91.77
55424;BME280;41294;42.666;23.350;2022-10-19T03:35:47;95519.44;;;4.88;92.57
55424;BME280;41294;42.666;23.350;2022-10-19T03:38:12;95518.22;;;5.00;91.88
55424;BME280;41294;42.666;23.350;2022-10-19T03:40:38;95517.97;;;4.84;92.57
55424;BME280;41294;42.666;23.350;2022-10-19T03:43:04;95515.75;;;4.86;92.96
55424;BME280;41294;42.666;23.350;2022-10-19T03:45:29;95517.91;;;4.94;91.93
55424;BME280;41294;42.666;23.350;2022-10-19T03:47:55;95516.81;;;4.88;92.49
55424;BME280;41294;42.666;23.350;2022-10-19T03:50:20;95515.78;;;4.83;92.53
55424;BME280;41294;42.666;23.350;2022-10-19T03:52:46;95515.69;;;4.89;91.87
55424;BME280;41294;42.666;23.350;2022-10-19T03:55:14;95511.94;;;4.94;91.79
55424;BME280;41294;42.666;23.350;2022-10-19T03:57:39;95503.09;;;4.85;91.39
55424;BME280;41294;42.666;23.350;2022-10-19T04:00:06;95504.66;;;4.75;92.01
55424;BME280;41294;42.666;23.350;2022-10-19T04:02:32;95510.69;;;4.69;92.45
55424;BME280;41294;42.666;23.350;2022-10-19T04:04:57;95506.94;;;4.70;92.38
55424;BME280;41294;42.666;23.350;2022-10-19T04:07:23;95515.84;;;4.76;91.68
55424;BME280;41294;42.666;23.350;2022-10-19T04:09:48;95512.81;;;4.81;91.36
55424;BME280;41294;42.666;23.350;2022-10-19T04:12:13;95516.91;;;4.82;91.55
55424;BME280;41294;42.666;23.350;2022-10-19T04:14:39;95512.88;;;4.74;91.72
55424;BME280;41294;42.666;23.350;2022-10-19T04:17:04;95507.31;;;4.68;92.23
55424;BME280;41294;42.666;23.350;2022-10-19T04:19:30;95499.22;;;4.56;92.96
55424;BME280;41294;42.666;23.350;2022-10-19T04:21:56;95508.47;;;4.64;93.00
55424;BME280;41294;42.666;23.350;2022-10-19T04:24:22;95497.28;;;4.67;92.45
55424;BME280;41294;42.666;23.350;2022-10-19T04:26:49;95497.38;;;4.53;92.90
55424;BME280;41294;42.666;23.350;2022-10-19T04:29:16;95492.91;;;4.57;93.65
55424;BME280;41294;42.666;23.350;2022-10-19T04:31:43;95498.78;;;4.68;92.86
55424;BME280;41294;42.666;23.350;2022-10-19T04:34:09;95494.59;;;4.30;94.42
55424;BME280;41294;42.666;23.350;2022-10-19T04:36:35;95492.44;;;4.18;95.04
55424;BME280;41294;42.666;23.350;2022-10-19T04:39:00;95493.41;;;3.80;97.76
55424;BME280;41294;42.666;23.350;2022-10-19T04:41:26;95491.88;;;3.86;98.01
55424;BME280;41294;42.666;23.350;2022-10-19T04:43:59;95491.09;;;3.96;97.31
55424;BME280;41294;42.666;23.350;2022-10-19T04:46:25;95497.03;;;3.97;97.45
55424;BME280;41294;42.666;23.350;2022-10-19T04:48:52;95493.75;;;3.89;98.14
55424;BME280;41294;42.666;23.350;2022-10-19T04:51:19;95488.84;;;3.98;97.55
55424;BME280;41294;42.666;23.350;2022-10-19T04:53:45;95494.03;;;4.02;97.77
55424;BME280;41294;42.666;23.350;2022-10-19T04:56:19;95500.97;;;4.22;98.65
55424;BME280;41294;42.666;23.350;2022-10-19T04:58:46;95503.28;;;4.09;97.59
55424;BME280;41294;42.666;23.350;2022-10-19T05:01:15;95491.06;;;4.94;94.99
55424;BME280;41294;42.666;23.350;2022-10-19T05:03:41;95491.25;;;6.10;87.17
55424;BME280;41294;42.666;23.350;2022-10-19T05:06:08;95496.59;;;6.98;83.09
55424;BME280;41294;42.666;23.350;2022-10-19T05:08:34;95490.13;;;7.64;79.06
55424;BME280;41294;42.666;23.350;2022-10-19T05:11:10;95490.56;;;8.13;77.24
55424;BME280;41294;42.666;23.350;2022-10-19T05:13:37;95488.88;;;9.02;74.09
55424;BME280;41294;42.666;23.350;2022-10-19T05:16:05;95484.63;;;8.93;71.96
55424;BME280;41294;42.666;23.350;2022-10-19T05:18:31;95482.13;;;9.17;70.26
55424;BME280;41294;42.666;23.350;2022-10-19T05:21:05;95485.31;;;9.09;70.45
55424;BME280;41294;42.666;23.350;2022-10-19T05:23:32;95482.59;;;9.81;67.88
55424;BME280;41294;42.666;23.350;2022-10-19T05:28:28;95471.63;;;10.11;67.21
55424;BME280;41294;42.666;23.350;2022-10-19T05:30:54;95485.84;;;10.26;67.14
55424;BME280;41294;42.666;23.350;2022-10-19T05:33:19;95484.31;;;10.63;64.56
55424;BME280;41294;42.666;23.350;2022-10-19T05:35:44;95490.56;;;10.68;65.07
55424;BME280;41294;42.666;23.350;2022-10-19T05:38:10;95480.13;;;10.65;64.88
55424;BME280;41294;42.666;23.350;2022-10-19T05:40:35;95489.44;;;11.25;63.28
55424;BME280;41294;42.666;23.350;2022-10-19T05:43:01;95484.59;;;11.57;63.38
55424;BME280;41294;42.666;23.350;2022-10-19T05:45:26;95487.06;;;12.33;60.83
55424;BME280;41294;42.666;23.350;2022-10-19T05:47:52;95483.88;;;12.96;58.21
55424;BME280;41294;42.666;23.350;2022-10-19T05:50:17;95487.25;;;13.05;57.65
55424;BME280;41294;42.666;23.350;2022-10-19T05:52:42;95484.19;;;13.07;57.68
55424;BME280;41294;42.666;23.350;2022-10-19T05:55:08;95483.00;;;13.61;56.18
55424;BME280;41294;42.666;23.350;2022-10-19T05:57:33;95483.59;;;13.38;56.67
55424;BME280;41294;42.666;23.350;2022-10-19T05:59:59;95477.44;;;13.41;57.01
55424;BME280;41294;42.666;23.350;2022-10-19T06:02:27;95483.88;;;13.49;56.97
55424;BME280;41294;42.666;23.350;2022-10-19T06:04:52;95489.22;;;14.08;56.20
55424;BME280;41294;42.666;23.350;2022-10-19T06:07:18;95480.13;;;14.51;54.04
55424;BME280;41294;42.666;23.350;2022-10-19T06:09:43;95484.44;;;14.39;54.30
55424;BME280;41294;42.666;23.350;2022-10-19T06:12:10;95488.69;;;14.46;54.46
55424;BME280;41294;42.666;23.350;2022-10-19T06:14:35;95493.25;;;14.78;53.79
55424;BME280;41294;42.666;23.350;2022-10-19T06:17:01;95494.09;;;14.83;53.65
55424;BME280;41294;42.666;23.350;2022-10-19T06:19:27;95497.88;;;14.91;53.25
55424;BME280;41294;42.666;23.350;2022-10-19T06:21:52;95498.75;;;15.12;52.38
55424;BME280;41294;42.666;23.350;2022-10-19T06:24:18;95502.53;;;15.43;51.49
55424;BME280;41294;42.666;23.350;2022-10-19T06:26:43;95508.81;;;15.69;51.04
55424;BME280;41294;42.666;23.350;2022-10-19T06:29:10;95506.56;;;16.05;49.18
55424;BME280;41294;42.666;23.350;2022-10-19T06:31:35;95507.47;;;16.46;48.17
55424;BME280;41294;42.666;23.350;2022-10-19T06:34:01;95499.22;;;16.58;47.23
55424;BME280;41294;42.666;23.350;2022-10-19T06:36:29;95503.09;;;16.43;47.33
55424;BME280;41294;42.666;23.350;2022-10-19T06:38:55;95497.63;;;17.20;45.87
55424;BME280;41294;42.666;23.350;2022-10-19T06:41:21;95497.88;;;17.22;46.08
55424;BME280;41294;42.666;23.350;2022-10-19T06:43:53;95499.09;;;17.21;45.09
55424;BME280;41294;42.666;23.350;2022-10-19T06:46:20;95499.50;;;17.14;45.57
55424;BME280;41294;42.666;23.350;2022-10-19T06:48:58;95490.84;;;17.39;44.97
55424;BME280;41294;42.666;23.350;2022-10-19T06:51:25;95486.56;;;17.07;44.86
55424;BME280;41294;42.666;23.350;2022-10-19T06:53:53;95479.78;;;17.26;44.62
55424;BME280;41294;42.666;23.350;2022-10-19T06:56:19;95477.72;;;17.55;43.85
55424;BME280;41294;42.666;23.350;2022-10-19T06:58:45;95476.78;;;17.58;43.77
55424;BME280;41294;42.666;23.350;2022-10-19T07:01:11;95467.69;;;17.45;44.16
55424;BME280;41294;42.666;23.350;2022-10-19T07:03:38;95467.22;;;17.72;43.21
55424;BME280;41294;42.666;23.350;2022-10-19T07:06:09;95465.16;;;17.56;42.72
55424;BME280;41294;42.666;23.350;2022-10-19T07:08:36;95467.53;;;17.54;42.83
55424;BME280;41294;42.666;23.350;2022-10-19T07:11:05;95455.38;;;17.73;42.44
55424;BME280;41294;42.666;23.350;2022-10-19T07:13:31;95465.75;;;18.52;41.09
55424;BME280;41294;42.666;23.350;2022-10-19T07:15:58;95465.16;;;18.37;41.08
55424;BME280;41294;42.666;23.350;2022-10-19T07:18:25;95460.03;;;18.70;40.46
55424;BME280;41294;42.666;23.350;2022-10-19T07:20:55;95467.94;;;18.54;40.64
55424;BME280;41294;42.666;23.350;2022-10-19T07:23:21;95459.28;;;18.64;39.92
55424;BME280;41294;42.666;23.350;2022-10-19T07:25:46;95461.03;;;19.25;38.92
55424;BME280;41294;42.666;23.350;2022-10-19T07:28:12;95460.09;;;17.58;42.54
55424;BME280;41294;42.666;23.350;2022-10-19T07:30:38;95461.47;;;16.11;45.53
55424;BME280;41294;42.666;23.350;2022-10-19T07:33:04;95460.09;;;16.78;44.05
55424;BME280;41294;42.666;23.350;2022-10-19T07:35:31;95454.78;;;17.38;43.67
55424;BME280;41294;42.666;23.350;2022-10-19T07:37:56;95454.56;;;18.48;41.55
55424;BME280;41294;42.666;23.350;2022-10-19T07:40:21;95444.25;;;18.30;41.26
55424;BME280;41294;42.666;23.350;2022-10-19T07:42:47;95441.03;;;17.65;42.99
55424;BME280;41294;42.666;23.350;2022-10-19T07:45:12;95434.81;;;18.29;41.48
55424;BME280;41294;42.666;23.350;2022-10-19T07:47:38;95434.88;;;19.46;40.02
55424;BME280;41294;42.666;23.350;2022-10-19T07:50:03;95427.09;;;18.73;40.67
55424;BME280;41294;42.666;23.350;2022-10-19T07:52:29;95429.13;;;19.85;38.95
55424;BME280;41294;42.666;23.350;2022-10-19T07:54:54;95428.16;;;20.49;38.18
55424;BME280;41294;42.666;23.350;2022-10-19T07:57:21;95415.03;;;18.94;39.91
55424;BME280;41294;42.666;23.350;2022-10-19T07:59:47;95420.81;;;18.82;40.10
55424;BME280;41294;42.666;23.350;2022-10-19T08:02:16;95410.06;;;19.12;39.36
55424;BME280;41294;42.666;23.350;2022-10-19T08:04:42;95411.56;;;20.83;36.80
55424;BME280;41294;42.666;23.350;2022-10-19T08:07:08;95410.81;;;20.88;36.41
55424;BME280;41294;42.666;23.350;2022-10-19T08:09:34;95406.38;;;21.58;35.28
55424;BME280;41294;42.666;23.350;2022-10-19T08:12:00;95399.16;;;22.41;33.95
55424;BME280;41294;42.666;23.350;2022-10-19T08:14:25;95396.22;;;22.10;34.31
55424;BME280;41294;42.666;23.350;2022-10-19T08:16:55;95403.59;;;21.23;35.38
55424;BME280;41294;42.666;23.350;2022-10-19T08:19:21;95403.38;;;22.02;34.34
55424;BME280;41294;42.666;23.350;2022-10-19T08:21:49;95401.75;;;22.46;33.66
55424;BME280;41294;42.666;23.350;2022-10-19T08:24:16;95399.19;;;23.25;32.21
55424;BME280;41294;42.666;23.350;2022-10-19T08:26:43;95394.59;;;24.07;31.63
55424;BME280;41294;42.666;23.350;2022-10-19T08:29:17;95399.88;;;24.70;30.63
55424;BME280;41294;42.666;23.350;2022-10-19T08:31:44;95392.34;;;24.24;30.86
55424;BME280;41294;42.666;23.350;2022-10-19T08:34:11;95397.38;;;24.72;30.34
55424;BME280;41294;42.666;23.350;2022-10-19T08:36:37;95390.53;;;24.01;31.50
55424;BME280;41294;42.666;23.350;2022-10-19T08:39:05;95382.44;;;24.32;30.82
55424;BME280;41294;42.666;23.350;2022-10-19T08:41:44;95384.56;;;24.78;30.07
55424;BME280;41294;42.666;23.350;2022-10-19T08:44:43;95380.06;;;25.19;29.52
55424;BME280;41294;42.666;23.350;2022-10-19T08:47:44;95371.34;;;25.26;29.40
55424;BME280;41294;42.666;23.350;2022-10-19T08:50:20;95374.69;;;25.52;29.35
55424;BME280;41294;42.666;23.350;2022-10-19T08:52:54;95359.31;;;25.27;29.59
55424;BME280;41294;42.666;23.350;2022-10-19T08:55:31;95359.31;;;25.27;29.40
55424;BME280;41294;42.666;23.350;2022-10-19T08:58:35;95359.31;;;25.01;29.83
55424;BME280;41294;42.666;23.350;2022-10-19T09:01:10;95357.94;;;25.33;29.30
55424;BME280;41294;42.666;23.350;2022-10-19T09:03:59;95362.38;;;24.59;30.61
55424;BME280;41294;42.666;23.350;2022-10-19T09:09:01;95358.75;;;24.56;30.60
55424;BME280;41294;42.666;23.350;2022-10-19T09:11:31;95355.13;;;24.54;30.75
55424;BME280;41294;42.666;23.350;2022-10-19T09:14:04;95352.94;;;24.39;31.08
55424;BME280;41294;42.666;23.350;2022-10-19T09:16:31;95354.28;;;25.10;30.64
55424;BME280;41294;42.666;23.350;2022-10-19T09:18:57;95349.28;;;25.01;30.24
55424;BME280;41294;42.666;23.350;2022-10-19T09:21:28;95342.06;;;24.71;30.54
55424;BME280;41294;42.666;23.350;2022-10-19T09:23:58;95350.16;;;24.58;31.11
55424;BME280;41294;42.666;23.350;2022-10-19T09:26:31;95345.19;;;24.88;30.93
55424;BME280;41294;42.666;23.350;2022-10-19T09:29:15;95340.28;;;24.86;31.06
55424;BME280;41294;42.666;23.350;2022-10-19T09:31:54;95344.75;;;24.84;30.83
55424;BME280;41294;42.666;23.350;2022-10-19T09:34:48;95346.19;;;24.33;31.47
55424;BME280;41294;42.666;23.350;2022-10-19T09:37:14;95344.16;;;24.78;30.98
55424;BME280;41294;42.666;23.350;2022-10-19T09:39:41;95344.66;;;24.63;31.01
55424;BME280;41294;42.666;23.350;2022-10-19T09:42:17;95339.25;;;24.24;32.07
55424;BME280;41294;42.666;23.350;2022-10-19T09:44:45;95348.56;;;24.36;31.60
55424;BME280;41294;42.666;23.350;2022-10-19T09:52:39;95350.13;;;24.84;30.62
55424;BME280;41294;42.666;23.350;2022-10-19T09:57:47;95335.22;;;24.44;30.90
55424;BME280;41294;42.666;23.350;2022-10-19T10:00:38;95343.81;;;24.81;30.79
55424;BME280;41294;42.666;23.350;2022-10-19T10:03:03;95331.75;;;25.08;30.36
55424;BME280;41294;42.666;23.350;2022-10-19T10:05:40;95339.56;;;24.34;30.68
55424;BME280;41294;42.666;23.350;2022-10-19T10:08:13;95326.19;;;24.03;31.43
55424;BME280;41294;42.666;23.350;2022-10-19T10:10:52;95321.34;;;24.53;30.99
55424;BME280;41294;42.666;23.350;2022-10-19T10:13:22;95314.22;;;25.14;30.50
55424;BME280;41294;42.666;23.350;2022-10-19T10:15:53;95311.56;;;25.01;30.55
55424;BME280;41294;42.666;23.350;2022-10-19T10:18:22;95306.13;;;25.27;30.19
55424;BME280;41294;42.666;23.350;2022-10-19T10:21:03;95300.13;;;25.21;30.00
55424;BME280;41294;42.666;23.350;2022-10-19T10:23:31;95294.34;;;25.04;30.05
55424;BME280;41294;42.666;23.350;2022-10-19T10:26:00;95298.69;;;25.07;30.07
55424;BME280;41294;42.666;23.350;2022-10-19T10:28:28;95280.47;;;25.13;29.92
55424;BME280;41294;42.666;23.350;2022-10-19T10:31:04;95277.28;;;24.89;30.53
55424;BME280;41294;42.666;23.350;2022-10-19T10:33:32;95275.06;;;25.13;30.36
55424;BME280;41294;42.666;23.350;2022-10-19T10:36:06;95275.03;;;24.80;30.14
55424;BME280;41294;42.666;23.350;2022-10-19T10:38:35;95268.13;;;24.07;31.53
55424;BME280;41294;42.666;23.350;2022-10-19T10:41:13;95271.56;;;24.20;30.92
55424;BME280;41294;42.666;23.350;2022-10-19T10:44:18;95251.13;;;24.38;30.79
55424;BME280;41294;42.666;23.350;2022-10-19T10:46:51;95254.88;;;24.48;31.15
55424;BME280;41294;42.666;23.350;2022-10-19T10:49:27;95252.31;;;24.89;30.21
55424;BME280;41294;42.666;23.350;2022-10-19T10:51:59;95249.03;;;25.03;29.71
55424;BME280;41294;42.666;23.350;2022-10-19T10:54:29;95237.22;;;25.39;29.43
55424;BME280;41294;42.666;23.350;2022-10-19T10:59:54;95228.41;;;25.18;29.33
55424;BME280;41294;42.666;23.350;2022-10-19T11:05:21;95224.75;;;24.49;30.08
55424;BME280;41294;42.666;23.350;2022-10-19T11:08:02;95219.59;;;24.85;30.12
55424;BME280;41294;42.666;23.350;2022-10-19T11:10:35;95216.28;;;24.45;30.79
55424;BME280;41294;42.666;23.350;2022-10-19T11:15:53;95209.41;;;24.91;30.17
55424;BME280;41294;42.666;23.350;2022-10-19T11:18:33;95216.28;;;25.12;30.09
55424;BME280;41294;42.666;23.350;2022-10-19T11:21:05;95204.13;;;25.18;29.07
55424;BME280;41294;42.666;23.350;2022-10-19T11:29:04;95198.28;;;25.27;27.70
55424;BME280;41294;42.666;23.350;2022-10-19T11:31:47;95198.75;;;25.05;26.94
55424;BME280;41294;42.666;23.350;2022-10-19T11:34:42;95178.47;;;25.04;27.02
55424;BME280;41294;42.666;23.350;2022-10-19T11:39:50;95187.59;;;25.01;26.17
55424;BME280;41294;42.666;23.350;2022-10-19T11:53:32;95168.88;;;24.63;26.97
55424;BME280;41294;42.666;23.350;2022-10-19T11:56:18;95168.25;;;24.70;27.46
55424;BME280;41294;42.666;23.350;2022-10-19T11:59:10;95159.34;;;24.62;27.11
55424;BME280;41294;42.666;23.350;2022-10-19T12:05:05;95153.91;;;24.41;27.79
55424;BME280;41294;42.666;23.350;2022-10-19T12:10:12;95147.88;;;24.15;27.97
55424;BME280;41294;42.666;23.350;2022-10-19T12:13:18;95140.78;;;24.51;27.58
55424;BME280;41294;42.666;23.350;2022-10-19T12:15:49;95148.78;;;24.05;27.82
55424;BME280;41294;42.666;23.350;2022-10-19T12:20:56;95147.50;;;24.31;28.25
55424;BME280;41294;42.666;23.350;2022-10-19T12:23:33;95147.38;;;24.37;27.77
55424;BME280;41294;42.666;23.350;2022-10-19T12:26:02;95145.06;;;24.20;27.81
55424;BME280;41294;42.666;23.350;2022-10-19T12:28:31;95133.56;;;24.20;28.09
55424;BME280;41294;42.666;23.350;2022-10-19T12:30:58;95127.84;;;24.36;28.13
55424;BME280;41294;42.666;23.350;2022-10-19T12:33:44;95131.38;;;24.44;28.14
55424;BME280;41294;42.666;23.350;2022-10-19T12:46:42;95129.38;;;23.60;29.23
55424;BME280;41294;42.666;23.350;2022-10-19T12:51:54;95130.38;;;23.70;28.82
55424;BME280;41294;42.666;23.350;2022-10-19T12:54:23;95131.31;;;23.46;29.04
55424;BME280;41294;42.666;23.350;2022-10-19T12:56:51;95128.72;;;23.28;29.41
55424;BME280;41294;42.666;23.350;2022-10-19T12:59:29;95125.13;;;23.38;28.96
55424;BME280;41294;42.666;23.350;2022-10-19T13:01:56;95127.47;;;23.16;29.52
55424;BME280;41294;42.666;23.350;2022-10-19T13:04:28;95125.41;;;23.22;29.99
55424;BME280;41294;42.666;23.350;2022-10-19T13:09:26;95131.25;;;23.08;30.57
55424;BME280;41294;42.666;23.350;2022-10-19T13:14:59;95124.25;;;22.86;31.06
55424;BME280;41294;42.666;23.350;2022-10-19T13:17:39;95121.44;;;22.79;30.54
55424;BME280;41294;42.666;23.350;2022-10-19T13:22:47;95110.53;;;22.22;32.08
55424;BME280;41294;42.666;23.350;2022-10-19T13:25:28;95106.84;;;22.06;32.47
55424;BME280;41294;42.666;23.350;2022-10-19T13:27:59;95107.88;;;22.03;32.58
55424;BME280;41294;42.666;23.350;2022-10-19T13:41:23;95105.94;;;21.61;34.20
55424;BME280;41294;42.666;23.350;2022-10-19T14:04:18;95080.13;;;21.11;36.99
55424;BME280;41294;42.666;23.350;2022-10-19T14:07:01;95079.06;;;21.19;36.49
55424;BME280;41294;42.666;23.350;2022-10-19T14:12:23;95073.78;;;21.14;36.60
55424;BME280;41294;42.666;23.350;2022-10-19T14:14:49;95083.03;;;21.13;37.05
55424;BME280;41294;42.666;23.350;2022-10-19T14:17:23;95081.03;;;21.19;37.07
55424;BME280;41294;42.666;23.350;2022-10-19T14:19:52;95078.69;;;21.10;36.91
55424;BME280;41294;42.666;23.350;2022-10-19T14:27:37;95084.88;;;20.99;36.11
55424;BME280;41294;42.666;23.350;2022-10-19T14:30:03;95082.97;;;20.94;36.66
55424;BME280;41294;42.666;23.350;2022-10-19T14:32:31;95081.16;;;21.08;36.55
55424;BME280;41294;42.666;23.350;2022-10-19T14:35:21;95091.38;;;21.04;36.96
55424;BME280;41294;42.666;23.350;2022-10-19T14:37:47;95092.47;;;20.95;36.78
55424;BME280;41294;42.666;23.350;2022-10-19T14:40:36;95092.00;;;20.91;37.17
55424;BME280;41294;42.666;23.350;2022-10-19T14:43:25;95094.66;;;20.91;37.20
55424;BME280;41294;42.666;23.350;2022-10-19T14:48:35;95095.50;;;20.81;38.15
55424;BME280;41294;42.666;23.350;2022-10-19T14:51:02;95096.81;;;20.64;38.39
55424;BME280;41294;42.666;23.350;2022-10-19T14:53:39;95099.28;;;20.62;38.69
55424;BME280;41294;42.666;23.350;2022-10-19T14:56:07;95108.88;;;20.46;38.85
55424;BME280;41294;42.666;23.350;2022-10-19T15:01:12;95108.44;;;20.37;39.29
55424;BME280;41294;42.666;23.350;2022-10-19T15:03:41;95110.00;;;20.21;39.60
55424;BME280;41294;42.666;23.350;2022-10-19T15:06:16;95110.28;;;20.18;39.60
55424;BME280;41294;42.666;23.350;2022-10-19T15:08:46;95110.50;;;20.14;39.89
55424;BME280;41294;42.666;23.350;2022-10-19T15:11:26;95112.53;;;19.97;39.64
55424;BME280;41294;42.666;23.350;2022-10-19T15:14:13;95117.88;;;19.97;39.18
55424;BME280;41294;42.666;23.350;2022-10-19T15:16:57;95128.13;;;19.88;39.84
55424;BME280;41294;42.666;23.350;2022-10-19T15:24:40;95131.19;;;19.41;40.68
55424;BME280;41294;42.666;23.350;2022-10-19T15:27:19;95136.56;;;19.19;41.00
55424;BME280;41294;42.666;23.350;2022-10-19T15:29:56;95147.94;;;19.03;41.53
55424;BME280;41294;42.666;23.350;2022-10-19T15:32:25;95145.28;;;18.92;41.53
55424;BME280;41294;42.666;23.350;2022-10-19T15:34:56;95147.22;;;18.86;41.55
55424;BME280;41294;42.666;23.350;2022-10-19T15:37:22;95154.75;;;18.77;42.05